sensor_id;sensor_type;location;lat;lon;timestamp;pressure;altitude;pressure_sealevel;temperature;humidity
62655;BME280;48717;55.556;37.816;2023-08-30T00:01:58;99243.88;;;15.61;89.89
62655;BME280;48717;55.556;37.816;2023-08-30T00:04:25;99269.00;;;15.79;90.22
62655;BME280;48717;55.556;37.816;2023-08-30T00:06:52;99260.28;;;15.75;90.05
62655;BME280;48717;55.556;37.816;2023-08-30T00:09:19;99247.31;;;15.64;90.42
62655;BME280;48717;55.556;37.816;2023-08-30T00:11:47;99230.81;;;15.53;90.60
62655;BME280;48717;55.556;37.816;2023-08-30T00:14:14;99239.53;;;15.58;91.19
62655;BME280;48717;55.556;37.816;2023-08-30T00:16:41;99258.66;;;15.70;90.87
62655;BME280;48717;55.556;37.816;2023-08-30T00:19:08;99266.78;;;15.65;90.77
62655;BME280;48717;55.556;37.816;2023-08-30T00:21:35;99270.94;;;15.74;91.50
62655;BME280;48717;55.556;37.816;2023-08-30T00:24:02;99282.53;;;15.71;91.62
62655;BME280;48717;55.556;37.816;2023-08-30T00:26:29;99284.38;;;15.69;92.00
62655;BME280;48717;55.556;37.816;2023-08-30T00:28:58;99278.19;;;15.69;91.93
62655;BME280;48717;55.556;37.816;2023-08-30T00:31:25;99264.34;;;15.57;92.17
62655;BME280;48717;55.556;37.816;2023-08-30T00:33:52;99275.66;;;15.64;92.43
62655;BME280;48717;55.556;37.816;2023-08-30T00:36:20;99285.25;;;15.70;92.43
62655;BME280;48717;55.556;37.816;2023-08-30T00:38:47;99259.31;;;15.48;92.26
62655;BME280;48717;55.556;37.816;2023-08-30T00:41:14;99277.44;;;15.63;92.36
62655;BME280;48717;55.556;37.816;2023-08-30T00:43:41;99283.59;;;15.65;92.53
62655;BME280;48717;55.556;37.816;2023-08-30T00:46:09;99282.69;;;15.66;92.80
62655;BME280;48717;55.556;37.816;2023-08-30T00:48:36;99262.44;;;15.62;92.17
62655;BME280;48717;55.556;37.816;2023-08-30T00:51:04;99259.97;;;15.56;91.94
62655;BME280;48717;55.556;37.816;2023-08-30T00:53:32;99281.94;;;15.61;92.69
62655;BME280;48717;55.556;37.816;2023-08-30T00:55:59;99280.22;;;15.60;92.02
62655;BME280;48717;55.556;37.816;2023-08-30T00:58:26;99294.28;;;15.64;92.59
62655;BME280;48717;55.556;37.816;2023-08-30T01:00:54;99271.78;;;15.46;92.60
62655;BME280;48717;55.556;37.816;2023-08-30T01:03:21;99305.78;;;15.64;92.69
62655;BME280;48717;55.556;37.816;2023-08-30T01:05:50;99297.94;;;15.60;92.70
62655;BME280;48717;55.556;37.816;2023-08-30T01:08:17;99305.03;;;15.59;92.68
62655;BME280;48717;55.556;37.816;2023-08-30T01:10:53;99287.59;;;15.50;92.54
62655;BME280;48717;55.556;37.816;2023-08-30T01:13:24;99298.91;;;15.57;92.55
62655;BME280;48717;55.556;37.816;2023-08-30T01:15:54;99283.31;;;15.45;92.83
62655;BME280;48717;55.556;37.816;2023-08-30T01:18:26;99263.28;;;15.34;93.08
62655;BME280;48717;55.556;37.816;2023-08-30T01:20:54;99270.31;;;15.35;92.50
62655;BME280;48717;55.556;37.816;2023-08-30T01:26:09;99281.13;;;15.29;92.69
62655;BME280;48717;55.556;37.816;2023-08-30T01:28:38;99293.41;;;15.33;92.73
62655;BME280;48717;55.556;37.816;2023-08-30T01:31:07;99314.19;;;15.49;92.99
62655;BME280;48717;55.556;37.816;2023-08-30T01:33:39;99285.47;;;15.32;93.02
62655;BME280;48717;55.556;37.816;2023-08-30T01:36:07;99316.09;;;15.45;93.11
62655;BME280;48717;55.556;37.816;2023-08-30T01:38:35;99321.34;;;15.47;93.62
62655;BME280;48717;55.556;37.816;2023-08-30T01:41:04;99317.78;;;15.48;93.45
62655;BME280;48717;55.556;37.816;2023-08-30T01:43:31;99311.59;;;15.47;93.52
62655;BME280;48717;55.556;37.816;2023-08-30T01:46:03;99293.22;;;15.39;93.25
62655;BME280;48717;55.556;37.816;2023-08-30T01:48:33;99316.91;;;15.47;93.59
62655;BME280;48717;55.556;37.816;2023-08-30T01:51:03;99319.59;;;15.46;93.23
62655;BME280;48717;55.556;37.816;2023-08-30T01:53:30;99321.41;;;15.45;93.67
62655;BME280;48717;55.556;37.816;2023-08-30T01:55:58;99298.53;;;15.39;93.36
62655;BME280;48717;55.556;37.816;2023-08-30T01:58:26;99310.09;;;15.38;93.68
62655;BME280;48717;55.556;37.816;2023-08-30T02:00:53;99323.44;;;15.35;94.12
62655;BME280;48717;55.556;37.816;2023-08-30T02:03:22;99319.97;;;15.33;94.61
62655;BME280;48717;55.556;37.816;2023-08-30T02:06:11;99307.81;;;15.24;94.42
62655;BME280;48717;55.556;37.816;2023-08-30T02:08:50;99330.59;;;15.33;94.37
62655;BME280;48717;55.556;37.816;2023-08-30T02:11:23;99326.25;;;15.31;94.66
62655;BME280;48717;55.556;37.816;2023-08-30T02:13:57;99323.63;;;15.29;94.78
62655;BME280;48717;55.556;37.816;2023-08-30T02:16:25;99307.84;;;15.23;95.18
62655;BME280;48717;55.556;37.816;2023-08-30T02:18:53;99321.06;;;15.26;95.86
62655;BME280;48717;55.556;37.816;2023-08-30T02:21:21;99312.25;;;15.24;95.35
62655;BME280;48717;55.556;37.816;2023-08-30T02:23:50;99323.53;;;15.32;95.54
62655;BME280;48717;55.556;37.816;2023-08-30T02:26:21;99301.63;;;15.24;95.73
62655;BME280;48717;55.556;37.816;2023-08-30T02:28:48;99323.53;;;15.32;95.57
62655;BME280;48717;55.556;37.816;2023-08-30T02:31:15;99321.81;;;15.30;95.32
62655;BME280;48717;55.556;37.816;2023-08-30T02:33:45;99311.63;;;15.16;95.78
62655;BME280;48717;55.556;37.816;2023-08-30T02:36:12;99296.88;;;15.04;95.79
62655;BME280;48717;55.556;37.816;2023-08-30T02:38:39;99324.66;;;15.23;95.65
62655;BME280;48717;55.556;37.816;2023-08-30T02:41:06;99334.50;;;15.20;96.20
62655;BME280;48717;55.556;37.816;2023-08-30T02:43:33;99332.84;;;15.16;96.69
62655;BME280;48717;55.556;37.816;2023-08-30T02:46:00;99334.59;;;15.17;96.59
62655;BME280;48717;55.556;37.816;2023-08-30T02:48:28;99312.97;;;14.97;96.61
62655;BME280;48717;55.556;37.816;2023-08-30T02:50:55;99331.00;;;15.18;95.76
62655;BME280;48717;55.556;37.816;2023-08-30T02:53:23;99309.19;;;15.06;95.76
62655;BME280;48717;55.556;37.816;2023-08-30T02:55:49;99334.59;;;15.17;95.68
62655;BME280;48717;55.556;37.816;2023-08-30T02:58:17;99304.34;;;14.89;95.40
62655;BME280;48717;55.556;37.816;2023-08-30T03:00:44;99341.91;;;15.08;95.69
62655;BME280;48717;55.556;37.816;2023-08-30T03:03:11;99331.34;;;15.05;95.49
62655;BME280;48717;55.556;37.816;2023-08-30T03:05:38;99344.50;;;15.10;95.27
62655;BME280;48717;55.556;37.816;2023-08-30T03:08:07;99336.50;;;15.11;95.06
62655;BME280;48717;55.556;37.816;2023-08-30T03:10:35;99340.84;;;15.14;94.41
62655;BME280;48717;55.556;37.816;2023-08-30T03:13:02;99321.44;;;15.12;94.55
62655;BME280;48717;55.556;37.816;2023-08-30T03:18:47;99331.97;;;15.15;93.04
62655;BME280;48717;55.556;37.816;2023-08-30T03:21:15;99324.13;;;15.10;92.86
62655;BME280;48717;55.556;37.816;2023-08-30T03:23:42;99320.72;;;15.05;92.57
62655;BME280;48717;55.556;37.816;2023-08-30T03:26:13;99342.72;;;15.10;93.09
62655;BME280;48717;55.556;37.816;2023-08-30T03:28:42;99314.72;;;14.98;93.00
62655;BME280;48717;55.556;37.816;2023-08-30T03:31:19;99322.56;;;15.03;92.24
62655;BME280;48717;55.556;37.816;2023-08-30T03:49:26;99320.97;;;15.29;90.18
62655;BME280;48717;55.556;37.816;2023-08-30T03:51:53;99335.84;;;15.35;89.71
62655;BME280;48717;55.556;37.816;2023-08-30T03:54:22;99318.47;;;15.23;89.53
62655;BME280;48717;55.556;37.816;2023-08-30T03:56:49;99325.28;;;15.33;89.65
62655;BME280;48717;55.556;37.816;2023-08-30T03:59:16;99334.84;;;15.39;89.31
62655;BME280;48717;55.556;37.816;2023-08-30T04:01:44;99311.25;;;15.28;89.05
62655;BME280;48717;55.556;37.816;2023-08-30T04:04:11;99336.09;;;15.57;88.76
62655;BME280;48717;55.556;37.816;2023-08-30T04:06:39;99320.81;;;15.65;87.84
62655;BME280;48717;55.556;37.816;2023-08-30T04:09:06;99341.59;;;15.81;86.34
62655;BME280;48717;55.556;37.816;2023-08-30T04:11:33;99336.94;;;15.88;85.86
62655;BME280;48717;55.556;37.816;2023-08-30T04:14:00;99343.88;;;15.93;85.32
62655;BME280;48717;55.556;37.816;2023-08-30T04:16:27;99314.25;;;15.77;85.14
62655;BME280;48717;55.556;37.816;2023-08-30T04:18:54;99332.25;;;15.98;84.89
62655;BME280;48717;55.556;37.816;2023-08-30T04:21:21;99335.84;;;15.97;84.73
62655;BME280;48717;55.556;37.816;2023-08-30T04:23:48;99342.97;;;15.95;84.80
62655;BME280;48717;55.556;37.816;2023-08-30T04:26:15;99325.25;;;15.93;84.64
62655;BME280;48717;55.556;37.816;2023-08-30T04:28:43;99343.53;;;16.06;84.67
62655;BME280;48717;55.556;37.816;2023-08-30T04:31:10;99338.31;;;16.03;84.24
62655;BME280;48717;55.556;37.816;2023-08-30T04:33:37;99339.91;;;16.09;84.22
62655;BME280;48717;55.556;37.816;2023-08-30T04:36:04;99332.81;;;16.09;83.69
62655;BME280;48717;55.556;37.816;2023-08-30T04:38:32;99347.16;;;16.32;83.16
62655;BME280;48717;55.556;37.816;2023-08-30T04:41:02;99346.53;;;16.51;82.29
62655;BME280;48717;55.556;37.816;2023-08-30T04:43:33;99345.91;;;16.69;81.18
62655;BME280;48717;55.556;37.816;2023-08-30T04:46:01;99330.38;;;16.84;80.29
62655;BME280;48717;55.556;37.816;2023-08-30T04:48:30;99338.94;;;16.92;79.55
62655;BME280;48717;55.556;37.816;2023-08-30T04:51:02;99337.69;;;17.04;78.74
62655;BME280;48717;55.556;37.816;2023-08-30T04:53:32;99350.63;;;17.15;78.19
62655;BME280;48717;55.556;37.816;2023-08-30T04:55:59;99336.38;;;17.16;77.60
62655;BME280;48717;55.556;37.816;2023-08-30T04:58:28;99296.13;;;16.99;77.06
62655;BME280;48717;55.556;37.816;2023-08-30T05:00:56;99339.50;;;17.28;76.07
62655;BME280;48717;55.556;37.816;2023-08-30T05:03:24;99353.03;;;17.21;75.49
62655;BME280;48717;55.556;37.816;2023-08-30T05:05:51;99356.31;;;17.30;75.58
62655;BME280;48717;55.556;37.816;2023-08-30T05:08:18;99351.72;;;17.33;73.95
62655;BME280;48717;55.556;37.816;2023-08-30T05:10:47;99351.97;;;17.27;73.88
62655;BME280;48717;55.556;37.816;2023-08-30T05:13:16;99360.31;;;17.42;73.27
62655;BME280;48717;55.556;37.816;2023-08-30T05:15:43;99360.44;;;17.63;72.80
62655;BME280;48717;55.556;37.816;2023-08-30T05:18:11;99347.63;;;17.72;71.30
62655;BME280;48717;55.556;37.816;2023-08-30T05:20:38;99356.91;;;17.86;70.73
62655;BME280;48717;55.556;37.816;2023-08-30T05:23:05;99357.97;;;17.82;70.46
62655;BME280;48717;55.556;37.816;2023-08-30T05:25:32;99353.66;;;17.78;70.33
62655;BME280;48717;55.556;37.816;2023-08-30T05:28:01;99345.88;;;17.71;70.14
62655;BME280;48717;55.556;37.816;2023-08-30T05:30:29;99353.66;;;17.78;70.17
62655;BME280;48717;55.556;37.816;2023-08-30T05:32:58;99336.09;;;17.72;69.18
62655;BME280;48717;55.556;37.816;2023-08-30T05:36:01;99346.34;;;17.83;68.83
62655;BME280;48717;55.556;37.816;2023-08-30T05:38:49;99329.53;;;17.81;68.36
62655;BME280;48717;55.556;37.816;2023-08-30T05:41:32;99330.78;;;17.94;68.22
62655;BME280;48717;55.556;37.816;2023-08-30T05:43:59;99322.09;;;17.89;67.88
62655;BME280;48717;55.556;37.816;2023-08-30T05:46:26;99321.72;;;17.98;67.78
62655;BME280;48717;55.556;37.816;2023-08-30T05:48:53;99325.84;;;18.07;67.00
62655;BME280;48717;55.556;37.816;2023-08-30T05:51:22;99337.25;;;18.35;65.92
62655;BME280;48717;55.556;37.816;2023-08-30T05:53:50;99341.13;;;18.48;65.78
62655;BME280;48717;55.556;37.816;2023-08-30T05:56:17;99337.03;;;18.62;65.44
62655;BME280;48717;55.556;37.816;2023-08-30T05:58:44;99343.97;;;18.66;64.75
62655;BME280;48717;55.556;37.816;2023-08-30T06:01:11;99346.94;;;18.58;64.52
62655;BME280;48717;55.556;37.816;2023-08-30T06:03:38;99344.97;;;18.41;64.65
62655;BME280;48717;55.556;37.816;2023-08-30T06:06:05;99343.38;;;18.37;64.48
62655;BME280;48717;55.556;37.816;2023-08-30T06:08:32;99343.38;;;18.37;64.01
62655;BME280;48717;55.556;37.816;2023-08-30T06:10:59;99356.28;;;18.25;64.22
62655;BME280;48717;55.556;37.816;2023-08-30T06:13:27;99347.97;;;18.11;63.93
62655;BME280;48717;55.556;37.816;2023-08-30T06:15:54;99361.25;;;18.12;63.79
62655;BME280;48717;55.556;37.816;2023-08-30T06:18:21;99368.38;;;18.12;64.47
62655;BME280;48717;55.556;37.816;2023-08-30T06:20:49;99369.19;;;18.14;64.11
62655;BME280;48717;55.556;37.816;2023-08-30T06:23:18;99345.56;;;18.03;64.32
62655;BME280;48717;55.556;37.816;2023-08-30T06:25:53;99376.25;;;18.15;64.85
62655;BME280;48717;55.556;37.816;2023-08-30T06:28:20;99363.97;;;18.11;65.12
62655;BME280;48717;55.556;37.816;2023-08-30T06:30:48;99367.81;;;18.26;64.85
62655;BME280;48717;55.556;37.816;2023-08-30T06:33:15;99353.06;;;18.17;64.73
62655;BME280;48717;55.556;37.816;2023-08-30T06:35:42;99375.78;;;18.27;64.47
62655;BME280;48717;55.556;37.816;2023-08-30T06:38:10;99369.75;;;18.22;64.62
62655;BME280;48717;55.556;37.816;2023-08-30T06:40:43;99366.44;;;18.38;63.54
62655;BME280;48717;55.556;37.816;2023-08-30T06:43:11;99373.78;;;18.33;63.81
62655;BME280;48717;55.556;37.816;2023-08-30T06:45:39;99362.84;;;18.39;63.97
62655;BME280;48717;55.556;37.816;2023-08-30T06:48:06;99377.13;;;18.60;62.81
62655;BME280;48717;55.556;37.816;2023-08-30T06:50:37;99391.66;;;18.75;62.33
62655;BME280;48717;55.556;37.816;2023-08-30T06:53:04;99384.97;;;18.86;61.49
62655;BME280;48717;55.556;37.816;2023-08-30T06:55:31;99368.28;;;18.81;61.42
62655;BME280;48717;55.556;37.816;2023-08-30T06:58:00;99371.41;;;18.70;60.84
62655;BME280;48717;55.556;37.816;2023-08-30T07:00:27;99361.44;;;18.52;61.42
62655;BME280;48717;55.556;37.816;2023-08-30T07:02:54;99384.09;;;18.42;62.07
62655;BME280;48717;55.556;37.816;2023-08-30T07:05:22;99364.28;;;18.25;62.33
62655;BME280;48717;55.556;37.816;2023-08-30T07:07:49;99378.63;;;18.45;62.23
62655;BME280;48717;55.556;37.816;2023-08-30T07:10:17;99393.75;;;18.45;61.72
62655;BME280;48717;55.556;37.816;2023-08-30T07:12:44;99393.66;;;18.70;61.24
62655;BME280;48717;55.556;37.816;2023-08-30T07:15:15;99392.88;;;18.89;61.84
62655;BME280;48717;55.556;37.816;2023-08-30T07:17:44;99379.69;;;19.07;59.86
62655;BME280;48717;55.556;37.816;2023-08-30T07:20:13;99380.88;;;19.20;59.23
62655;BME280;48717;55.556;37.816;2023-08-30T07:22:40;99369.91;;;19.26;58.76
62655;BME280;48717;55.556;37.816;2023-08-30T07:25:08;99353.66;;;19.71;57.61
62655;BME280;48717;55.556;37.816;2023-08-30T07:27:37;99365.66;;;20.20;55.52
62655;BME280;48717;55.556;37.816;2023-08-30T07:30:05;99371.97;;;20.56;54.56
62655;BME280;48717;55.556;37.816;2023-08-30T07:32:32;99372.78;;;20.76;54.14
62655;BME280;48717;55.556;37.816;2023-08-30T07:34:59;99386.81;;;20.81;53.73
62655;BME280;48717;55.556;37.816;2023-08-30T07:37:28;99379.34;;;20.70;53.56
62655;BME280;48717;55.556;37.816;2023-08-30T07:39:55;99378.97;;;20.41;53.83
62655;BME280;48717;55.556;37.816;2023-08-30T07:42:22;99380.00;;;20.19;54.85
62655;BME280;48717;55.556;37.816;2023-08-30T07:44:49;99375.66;;;20.16;54.54
62655;BME280;48717;55.556;37.816;2023-08-30T07:47:16;99375.81;;;20.13;54.64
62655;BME280;48717;55.556;37.816;2023-08-30T07:49:43;99384.66;;;20.15;54.17
62655;BME280;48717;55.556;37.816;2023-08-30T07:52:10;99381.59;;;20.23;53.72
62655;BME280;48717;55.556;37.816;2023-08-30T07:54:39;99379.88;;;20.22;54.14
62655;BME280;48717;55.556;37.816;2023-08-30T07:57:08;99382.88;;;20.33;53.83
62655;BME280;48717;55.556;37.816;2023-08-30T07:59:36;99383.59;;;20.37;53.97
62655;BME280;48717;55.556;37.816;2023-08-30T08:02:04;99380.41;;;20.48;53.12
62655;BME280;48717;55.556;37.816;2023-08-30T08:04:34;99393.34;;;20.57;52.78
62655;BME280;48717;55.556;37.816;2023-08-30T08:07:03;99401.19;;;20.60;52.89
62655;BME280;48717;55.556;37.816;2023-08-30T08:09:31;99379.88;;;20.59;52.52
62655;BME280;48717;55.556;37.816;2023-08-30T08:11:59;99392.00;;;20.84;51.88
62655;BME280;48717;55.556;37.816;2023-08-30T08:14:26;99388.03;;;21.10;51.33
62655;BME280;48717;55.556;37.816;2023-08-30T08:16:54;99404.41;;;21.39;50.86
62655;BME280;48717;55.556;37.816;2023-08-30T08:19:21;99393.03;;;21.52;50.83
62655;BME280;48717;55.556;37.816;2023-08-30T08:21:52;99397.84;;;21.45;50.27
62655;BME280;48717;55.556;37.816;2023-08-30T08:24:22;99401.72;;;21.39;50.64
62655;BME280;48717;55.556;37.816;2023-08-30T08:26:50;99400.84;;;21.57;49.83
62655;BME280;48717;55.556;37.816;2023-08-30T08:29:18;99384.81;;;21.73;49.18
62655;BME280;48717;55.556;37.816;2023-08-30T08:31:45;99394.97;;;22.00;48.37
62655;BME280;48717;55.556;37.816;2023-08-30T08:34:13;99385.03;;;22.34;47.68
62655;BME280;48717;55.556;37.816;2023-08-30T08:36:42;99400.00;;;23.01;45.68
62655;BME280;48717;55.556;37.816;2023-08-30T08:39:09;99386.56;;;23.46;44.09
62655;BME280;48717;55.556;37.816;2023-08-30T08:41:40;99397.91;;;23.52;44.30
62655;BME280;48717;55.556;37.816;2023-08-30T08:44:10;99411.00;;;23.27;44.23
62655;BME280;48717;55.556;37.816;2023-08-30T08:46:39;99406.69;;;23.25;44.14
62655;BME280;48717;55.556;37.816;2023-08-30T08:49:13;99413.59;;;23.29;44.36
62655;BME280;48717;55.556;37.816;2023-08-30T08:51:41;99405.50;;;23.14;44.53
62655;BME280;48717;55.556;37.816;2023-08-30T08:54:11;99414.09;;;23.05;45.17
62655;BME280;48717;55.556;37.816;2023-08-30T08:56:39;99409.53;;;22.76;45.57
62655;BME280;48717;55.556;37.816;2023-08-30T08:59:06;99409.94;;;22.68;45.69
62655;BME280;48717;55.556;37.816;2023-08-30T09:01:36;99420.44;;;22.73;46.24
62655;BME280;48717;55.556;37.816;2023-08-30T09:04:05;99420.91;;;22.65;46.56
62655;BME280;48717;55.556;37.816;2023-08-30T09:06:34;99418.81;;;22.71;46.20
62655;BME280;48717;55.556;37.816;2023-08-30T09:09:02;99419.94;;;22.66;45.81
62655;BME280;48717;55.556;37.816;2023-08-30T09:11:35;99397.50;;;22.35;45.55
62655;BME280;48717;55.556;37.816;2023-08-30T09:14:17;99421.22;;;22.27;45.90
62655;BME280;48717;55.556;37.816;2023-08-30T09:17:01;99440.25;;;22.38;46.15
62655;BME280;48717;55.556;37.816;2023-08-30T09:19:29;99450.50;;;22.80;45.48
62655;BME280;48717;55.556;37.816;2023-08-30T09:21:58;99454.34;;;22.76;45.79
62655;BME280;48717;55.556;37.816;2023-08-30T09:24:37;99435.25;;;22.64;46.08
62655;BME280;48717;55.556;37.816;2023-08-30T09:27:05;99458.31;;;22.68;45.87
62655;BME280;48717;55.556;37.816;2023-08-30T09:29:32;99449.13;;;22.40;46.30
62655;BME280;48717;55.556;37.816;2023-08-30T09:32:00;99453.97;;;22.34;47.12
62655;BME280;48717;55.556;37.816;2023-08-30T09:34:28;99460.91;;;22.22;47.71
62655;BME280;48717;55.556;37.816;2023-08-30T09:36:55;99458.34;;;22.02;47.64
62655;BME280;48717;55.556;37.816;2023-08-30T09:39:22;99455.41;;;22.07;47.94
62655;BME280;48717;55.556;37.816;2023-08-30T09:41:50;99451.66;;;22.43;47.12
62655;BME280;48717;55.556;37.816;2023-08-30T09:44:21;99452.31;;;22.79;46.27
62655;BME280;48717;55.556;37.816;2023-08-30T09:46:53;99454.03;;;22.80;44.95
62655;BME280;48717;55.556;37.816;2023-08-30T09:49:25;99432.13;;;22.24;45.79
62655;BME280;48717;55.556;37.816;2023-08-30T09:51:54;99449.09;;;22.08;46.53
62655;BME280;48717;55.556;37.816;2023-08-30T09:54:23;99458.91;;;21.75;47.14
62655;BME280;48717;55.556;37.816;2023-08-30T09:56:54;99461.78;;;21.71;47.61
62655;BME280;48717;55.556;37.816;2023-08-30T09:59:23;99452.41;;;22.13;46.74
62655;BME280;48717;55.556;37.816;2023-08-30T10:01:51;99465.06;;;22.43;45.67
62655;BME280;48717;55.556;37.816;2023-08-30T10:04:20;99459.19;;;22.53;45.45
62655;BME280;48717;55.556;37.816;2023-08-30T10:06:50;99477.59;;;22.11;46.62
62655;BME280;48717;55.556;37.816;2023-08-30T10:09:19;99470.09;;;21.66;47.61
62655;BME280;48717;55.556;37.816;2023-08-30T10:11:54;99474.84;;;21.43;47.68
62655;BME280;48717;55.556;37.816;2023-08-30T10:14:22;99468.00;;;21.20;48.63
62655;BME280;48717;55.556;37.816;2023-08-30T10:16:51;99456.63;;;21.15;49.22
62655;BME280;48717;55.556;37.816;2023-08-30T10:19:27;99453.84;;;21.34;48.83
62655;BME280;48717;55.556;37.816;2023-08-30T10:22:04;99461.88;;;21.16;49.89
62655;BME280;48717;55.556;37.816;2023-08-30T10:25:00;99468.00;;;21.20;49.51
62655;BME280;48717;55.556;37.816;2023-08-30T10:27:40;99466.25;;;21.01;50.19
62655;BME280;48717;55.556;37.816;2023-08-30T10:30:09;99467.91;;;21.04;50.21
62655;BME280;48717;55.556;37.816;2023-08-30T10:32:41;99462.91;;;21.13;49.70
62655;BME280;48717;55.556;37.816;2023-08-30T10:35:13;99461.25;;;21.64;48.47
62655;BME280;48717;55.556;37.816;2023-08-30T10:37:41;99459.00;;;22.56;46.79
62655;BME280;48717;55.556;37.816;2023-08-30T10:40:09;99453.69;;;23.33;44.68
62655;BME280;48717;55.556;37.816;2023-08-30T10:42:36;99454.72;;;24.05;42.50
62655;BME280;48717;55.556;37.816;2023-08-30T10:45:07;99461.25;;;24.72;40.84
62655;BME280;48717;55.556;37.816;2023-08-30T10:47:40;99457.16;;;25.48;39.34
62655;BME280;48717;55.556;37.816;2023-08-30T10:50:10;99432.03;;;25.73;38.30
62655;BME280;48717;55.556;37.816;2023-08-30T10:52:37;99445.66;;;26.48;37.15
62655;BME280;48717;55.556;37.816;2023-08-30T10:55:09;99446.03;;;27.28;35.84
62655;BME280;48717;55.556;37.816;2023-08-30T10:57:37;99439.25;;;27.70;34.79
62655;BME280;48717;55.556;37.816;2023-08-30T11:02:37;99435.03;;;28.46;33.79
62655;BME280;48717;55.556;37.816;2023-08-30T11:05:06;99438.50;;;28.48;33.14
62655;BME280;48717;55.556;37.816;2023-08-30T11:07:34;99443.09;;;28.01;33.55
62655;BME280;48717;55.556;37.816;2023-08-30T11:10:04;99446.31;;;27.48;34.53
62655;BME280;48717;55.556;37.816;2023-08-30T11:12:32;99448.31;;;26.85;35.53
62655;BME280;48717;55.556;37.816;2023-08-30T11:14:59;99435.44;;;26.27;36.77
62655;BME280;48717;55.556;37.816;2023-08-30T11:17:27;99442.75;;;26.38;36.40
62655;BME280;48717;55.556;37.816;2023-08-30T11:20:05;99432.34;;;26.45;36.44
62655;BME280;48717;55.556;37.816;2023-08-30T11:22:47;99435.38;;;27.02;35.75
62655;BME280;48717;55.556;37.816;2023-08-30T11:25:15;99440.78;;;27.02;35.37
62655;BME280;48717;55.556;37.816;2023-08-30T11:27:45;99421.69;;;27.28;34.87
62655;BME280;48717;55.556;37.816;2023-08-30T11:30:13;99436.56;;;27.81;34.04
62655;BME280;48717;55.556;37.816;2023-08-30T11:32:42;99421.03;;;28.06;33.44
62655;BME280;48717;55.556;37.816;2023-08-30T11:35:13;99446.75;;;28.90;32.40
62655;BME280;48717;55.556;37.816;2023-08-30T11:37:40;99434.75;;;29.26;31.60
62655;BME280;48717;55.556;37.816;2023-08-30T11:40:10;99431.78;;;29.72;30.79
62655;BME280;48717;55.556;37.816;2023-08-30T11:42:38;99434.31;;;30.26;29.69
62655;BME280;48717;55.556;37.816;2023-08-30T11:45:05;99428.00;;;30.25;29.55
62655;BME280;48717;55.556;37.816;2023-08-30T11:47:33;99420.31;;;30.40;29.17
62655;BME280;48717;55.556;37.816;2023-08-30T11:50:01;99422.78;;;30.53;29.24
62655;BME280;48717;55.556;37.816;2023-08-30T11:52:32;99424.84;;;31.00;28.90
62655;BME280;48717;55.556;37.816;2023-08-30T11:55:00;99426.41;;;31.13;28.62
62655;BME280;48717;55.556;37.816;2023-08-30T11:57:36;99428.81;;;31.46;27.83
62655;BME280;48717;55.556;37.816;2023-08-30T12:00:10;99424.94;;;31.96;26.97
62655;BME280;48717;55.556;37.816;2023-08-30T12:02:40;99433.84;;;32.54;26.63
62655;BME280;48717;55.556;37.816;2023-08-30T12:05:11;99398.19;;;32.38;26.15
62655;BME280;48717;55.556;37.816;2023-08-30T12:07:38;99432.06;;;32.63;26.02
62655;BME280;48717;55.556;37.816;2023-08-30T12:10:09;99438.06;;;32.67;25.78
62655;BME280;48717;55.556;37.816;2023-08-30T12:12:37;99432.78;;;32.37;26.31
62655;BME280;48717;55.556;37.816;2023-08-30T12:15:11;99431.81;;;32.56;25.79
62655;BME280;48717;55.556;37.816;2023-08-30T12:17:39;99434.09;;;32.79;25.64
62655;BME280;48717;55.556;37.816;2023-08-30T12:20:14;99430.56;;;32.87;25.74
62655;BME280;48717;55.556;37.816;2023-08-30T12:22:42;99409.22;;;33.01;25.62
62655;BME280;48717;55.556;37.816;2023-08-30T12:25:17;99413.03;;;33.26;24.70
62655;BME280;48717;55.556;37.816;2023-08-30T12:27:46;99425.13;;;33.50;24.62
62655;BME280;48717;55.556;37.816;2023-08-30T12:30:15;99413.50;;;33.03;25.24
62655;BME280;48717;55.556;37.816;2023-08-30T12:32:47;99399.03;;;31.44;26.61
62655;BME280;48717;55.556;37.816;2023-08-30T12:35:14;99399.47;;;31.10;27.74
62655;BME280;48717;55.556;37.816;2023-08-30T12:37:42;99398.63;;;30.99;27.73
62655;BME280;48717;55.556;37.816;2023-08-30T12:40:09;99401.75;;;31.34;27.61
62655;BME280;48717;55.556;37.816;2023-08-30T12:42:37;99388.41;;;31.89;26.69
62655;BME280;48717;55.556;37.816;2023-08-30T12:45:04;99382.25;;;32.15;26.17
62655;BME280;48717;55.556;37.816;2023-08-30T12:47:31;99381.63;;;32.21;25.98
62655;BME280;48717;55.556;37.816;2023-08-30T12:49:58;99371.59;;;32.40;25.63
62655;BME280;48717;55.556;37.816;2023-08-30T12:52:26;99361.25;;;32.62;25.43
62655;BME280;48717;55.556;37.816;2023-08-30T12:54:53;99372.31;;;32.42;25.89
62655;BME280;48717;55.556;37.816;2023-08-30T12:57:20;99360.13;;;31.52;27.22
62655;BME280;48717;55.556;37.816;2023-08-30T12:59:48;99380.53;;;30.59;27.88
62655;BME280;48717;55.556;37.816;2023-08-30T13:02:15;99365.72;;;29.71;29.15
62655;BME280;48717;55.556;37.816;2023-08-30T13:04:42;99378.06;;;28.57;31.67
62655;BME280;48717;55.556;37.816;2023-08-30T13:07:09;99381.50;;;28.04;32.71
62655;BME280;48717;55.556;37.816;2023-08-30T13:09:36;99355.66;;;27.88;32.87
62655;BME280;48717;55.556;37.816;2023-08-30T13:12:03;99363.66;;;27.89;32.62
62655;BME280;48717;55.556;37.816;2023-08-30T13:14:30;99364.22;;;28.16;32.26
62655;BME280;48717;55.556;37.816;2023-08-30T13:16:57;99365.06;;;28.39;32.08
62655;BME280;48717;55.556;37.816;2023-08-30T13:19:25;99354.88;;;28.64;31.50
62655;BME280;48717;55.556;37.816;2023-08-30T13:21:52;99351.00;;;28.46;31.75
62655;BME280;48717;55.556;37.816;2023-08-30T13:24:19;99356.16;;;27.70;33.24